• Join FlightAware (Why Join?)
  • Login
  • US Flag 
05:27AM EST


 

Airport Tracker/Info


-or-


 

Live Flight TrackerFlight Track Log ✈ N8275V ✈ 08-Jul-2013 ✈ KFRG - KDXR

Flight Track Log - Related Links

Times and Time Zones

All times are in EDT time to prevent confusion due to time zone crossing. See the N8275V flight status page for this flight to view local times or setup timezone preferences in your user account.

Time Position Orientation Groundspeed Altitude Reporting Facility
EDT Latitude Longitude Course Direction KTS MPH feet Rate Location/Type
11:55AM 41.0667 -73.4167 355° North 92 106 3,500  Level New York TRACON
11:56AM 41.1000 -73.4167 360° North 90 104 3,500  Level New York TRACON
11:57AM 41.1167 -73.4333 323° Northwest 93 107 3,600  Climbing New York TRACON
11:58AM 41.1500 -73.4333 360° North 102 117 3,600  Level New York TRACON
12:00PM 41.3715 -73.4822 355° North  Level Estimated
12:00PM 41.1809 -73.4488 339° North  Level FlightAware Approximate
12:07PM 41.2971 -73.4842 12° North  Level FlightAware Approximate
12:08PM 41.3208 -73.4781 11° North  Level FlightAware Approximate
12:09PM 41.3445 -73.4722 11° North  Level FlightAware Approximate
12:10PM 41.3667 -73.4667 11° North  Level FlightAware Approximate
12:11PM 41.3715 -73.4822 11° North  Level Estimated
12:12PM 41.3715 -73.4822 11° North  Level Estimated
12:13PM 41.3715 -73.4822 11° North  Level Estimated
12:14PM 41.3715 -73.4822 11° North  Level Estimated
12:15PM 41.3715 -73.4822 11° North  Level Estimated
12:16PM 41.3715 -73.4822 11° North  Level Estimated
12:17PM 41.3715 -73.4822 11° North  Level Estimated
12:18PM 41.3715 -73.4822 11° North  Level Estimated
12:19PM 41.3715 -73.4822 11° North  Level Estimated
12:20PM 41.3715 -73.4822 11° North  Level Estimated
12:21PM 41.3715 -73.4822 11° North  Level Estimated
12:22PM 41.3715 -73.4822 11° North  Level Estimated
12:23PM 41.3715 -73.4822 11° North  Level Estimated
12:24PM 41.3715 -73.4822 11° North  Level Estimated
12:25PM 41.3715 -73.4822 11° North  Level Estimated
12:26PM 41.3715 -73.4822 11° North  Level Estimated
12:27PM 41.3715 -73.4822 11° North  Level Estimated
12:28PM 41.3715 -73.4822 11° North  Level Estimated
12:29PM 41.3715 -73.4822 11° North  Level Estimated
12:30PM 41.3715 -73.4822 11° North  Level Estimated
12:31PM 41.3715 -73.4822 11° North  Level Estimated
12:32PM 41.3715 -73.4822 11° North  Level Estimated
12:33PM 41.3715 -73.4822 11° North  Level Estimated
12:34PM 41.3715 -73.4822 11° North  Level Estimated